Tortuga — WAE8888 — position and weather

sailwx.info

Track history (hours):
 
Tides and Currents Weather Stations Pressure Air Temp Water Temp Dewpoint Dewpoint Depression Visibility Wind Speed Wind Dir Waves Ship Positions

Tortuga

Owner: COPE, RAYMOND H, panama city beach, FL. More information available from US FCC via Universal Licensing System and Coast Guard Vessel Documentation Center.

Last reported at 2018-Apr-16 17:37 UTC. Time now 2018-May-20 11:47 UTC.
Position N 26°40' W 077°09'.
Warning: this ship's position is 33 days out of date.

Length 24 m; draft 1.5 m.

Type: Pleasure craft. MMSI: 338065964.

Date/timePositionNaut miles runAvg speedWind from/ knotsBaromVisibWave heightAir tempDewpointWater temp
2018-Apr-16 17:37N 26°40' W 077°09'1 8.1
2018-Apr-16 17:27N 26°39' W 077°08'3 7.9
2018-Apr-16 17:00N 26°37' W 077°05'4 7.8
2018-Apr-16 16:30N 26°35' W 077°02'3 5.3
2018-Apr-16 16:00N 26°32' W 077°02'1 1.1
2018-Apr-16 15:30N 26°33' W 077°03'0 0.0
2018-Apr-16 15:00N 26°33' W 077°03'0 0.0
2018-Apr-16 14:30N 26°33' W 077°03'  
2018-Apr-12 22:47N 26°33' W 077°03'0 0.0
2018-Apr-12 22:29N 26°33' W 077°03'0 0.0
2018-Apr-12 21:59N 26°33' W 077°03'0 0.0
2018-Apr-12 21:29N 26°33' W 077°03'0 0.0
2018-Apr-12 20:59N 26°33' W 077°03'0 0.0
2018-Apr-12 20:29N 26°33' W 077°03'0 0.0
2018-Apr-12 19:59N 26°33' W 077°03'0 0.0
2018-Apr-12 19:29N 26°33' W 077°03'0 0.0
2018-Apr-12 18:59N 26°33' W 077°03'0 0.0
2018-Apr-12 18:29N 26°33' W 077°03'0 0.0
2018-Apr-12 17:59N 26°33' W 077°03'0 0.0
2018-Apr-12 17:29N 26°33' W 077°03'0 0.0
2018-Apr-12 16:59N 26°33' W 077°03'0 0.0
2018-Apr-12 16:29N 26°33' W 077°03'0 0.0
2018-Apr-12 15:59N 26°33' W 077°03'0 0.0
2018-Apr-12 15:29N 26°33' W 077°03'0 0.0
2018-Apr-12 14:59N 26°33' W 077°03'0 0.0
2018-Apr-12 14:29N 26°33' W 077°03'0 0.0
2018-Apr-12 13:59N 26°33' W 077°03'0 0.0
2018-Apr-12 13:29N 26°33' W 077°03'0 0.0
2018-Apr-12 12:59N 26°33' W 077°03'0 0.0
2018-Apr-12 12:29N 26°33' W 077°03'0 0.0
2018-Apr-12 11:59N 26°33' W 077°03'0 0.0
2018-Apr-12 11:29N 26°33' W 077°03'0 0.0
2018-Apr-12 10:59N 26°33' W 077°03'0 0.0
2018-Apr-12 10:29N 26°33' W 077°03'0 0.0
2018-Apr-12 09:59N 26°33' W 077°03'0 0.0
2018-Apr-12 09:29N 26°33' W 077°03'0 0.0
2018-Apr-12 08:59N 26°33' W 077°03'0 0.0
2018-Apr-12 08:29N 26°33' W 077°03'0 0.0
2018-Apr-12 07:59N 26°33' W 077°03'0 0.0
2018-Apr-12 07:29N 26°33' W 077°03'0 0.0
2018-Apr-12 06:59N 26°33' W 077°03'0 0.0
2018-Apr-12 06:29N 26°33' W 077°03'0 0.0
2018-Apr-12 05:59N 26°33' W 077°03'0 0.0
2018-Apr-12 05:29N 26°33' W 077°03'0 0.0
2018-Apr-12 04:59N 26°33' W 077°03'0 0.0
2018-Apr-12 04:29N 26°33' W 077°03'0 0.0
2018-Apr-12 03:59N 26°33' W 077°03'0 0.0
2018-Apr-12 03:29N 26°33' W 077°03'0 0.0
2018-Apr-12 02:59N 26°33' W 077°03'0 0.0
2018-Apr-12 02:29N 26°33' W 077°03'0 0.0
2018-Apr-12 01:59N 26°33' W 077°03'0 0.0
2018-Apr-12 01:29N 26°33' W 077°03'0 0.0
2018-Apr-12 00:59N 26°33' W 077°03'0 0.0
2018-Apr-12 00:29N 26°33' W 077°03'0 0.0
2018-Apr-11 23:59N 26°33' W 077°03'0 0.0
2018-Apr-11 23:29N 26°33' W 077°03'0 0.0
2018-Apr-11 22:59N 26°33' W 077°03'0 0.0
2018-Apr-11 22:29N 26°33' W 077°03'0 0.0
2018-Apr-11 21:59N 26°33' W 077°03'  
Track history (hours):
 
Tides and Currents Weather Stations Pressure Air Temp Water Temp Dewpoint Dewpoint Depression Visibility Wind Speed Wind Dir Waves Ship Positions

Tortuga

Owner: COPE, RAYMOND H, panama city beach, FL. More information available from US FCC via Universal Licensing System and Coast Guard Vessel Documentation Center.

Last reported at 2018-Apr-16 17:37 UTC. Time now 2018-May-20 11:47 UTC.
Position N 26°40' W 077°09'.
Warning: this ship's position is 33 days out of date.

Length 24 m; draft 1.5 m.

Type: Pleasure craft. MMSI: 338065964.

Date/timePositionNaut miles runAvg speedWind from/ knotsBaromVisibWave heightAir tempDewpointWater temp
2018-Apr-16 17:37N 26°40' W 077°09'1 8.1
2018-Apr-16 17:27N 26°39' W 077°08'3 7.9
2018-Apr-16 17:00N 26°37' W 077°05'4 7.8
2018-Apr-16 16:30N 26°35' W 077°02'3 5.3
2018-Apr-16 16:00N 26°32' W 077°02'1 1.1
2018-Apr-16 15:30N 26°33' W 077°03'0 0.0
2018-Apr-16 15:00N 26°33' W 077°03'0 0.0
2018-Apr-16 14:30N 26°33' W 077°03'  
2018-Apr-12 22:47N 26°33' W 077°03'0 0.0
2018-Apr-12 22:29N 26°33' W 077°03'0 0.0
2018-Apr-12 21:59N 26°33' W 077°03'0 0.0
2018-Apr-12 21:29N 26°33' W 077°03'0 0.0
2018-Apr-12 20:59N 26°33' W 077°03'0 0.0
2018-Apr-12 20:29N 26°33' W 077°03'0 0.0
2018-Apr-12 19:59N 26°33' W 077°03'0 0.0
2018-Apr-12 19:29N 26°33' W 077°03'0 0.0
2018-Apr-12 18:59N 26°33' W 077°03'0 0.0
2018-Apr-12 18:29N 26°33' W 077°03'0 0.0
2018-Apr-12 17:59N 26°33' W 077°03'0 0.0
2018-Apr-12 17:29N 26°33' W 077°03'0 0.0
2018-Apr-12 16:59N 26°33' W 077°03'0 0.0
2018-Apr-12 16:29N 26°33' W 077°03'0 0.0
2018-Apr-12 15:59N 26°33' W 077°03'0 0.0
2018-Apr-12 15:29N 26°33' W 077°03'0 0.0
2018-Apr-12 14:59N 26°33' W 077°03'0 0.0
2018-Apr-12 14:29N 26°33' W 077°03'0 0.0
2018-Apr-12 13:59N 26°33' W 077°03'0 0.0
2018-Apr-12 13:29N 26°33' W 077°03'0 0.0
2018-Apr-12 12:59N 26°33' W 077°03'0 0.0
2018-Apr-12 12:29N 26°33' W 077°03'0 0.0
2018-Apr-12 11:59N 26°33' W 077°03'0 0.0
2018-Apr-12 11:29N 26°33' W 077°03'0 0.0
2018-Apr-12 10:59N 26°33' W 077°03'0 0.0
2018-Apr-12 10:29N 26°33' W 077°03'0 0.0
2018-Apr-12 09:59N 26°33' W 077°03'0 0.0
2018-Apr-12 09:29N 26°33' W 077°03'0 0.0
2018-Apr-12 08:59N 26°33' W 077°03'0 0.0
2018-Apr-12 08:29N 26°33' W 077°03'0 0.0
2018-Apr-12 07:59N 26°33' W 077°03'0 0.0
2018-Apr-12 07:29N 26°33' W 077°03'0 0.0
2018-Apr-12 06:59N 26°33' W 077°03'0 0.0
2018-Apr-12 06:29N 26°33' W 077°03'0 0.0
2018-Apr-12 05:59N 26°33' W 077°03'0 0.0
2018-Apr-12 05:29N 26°33' W 077°03'0 0.0
2018-Apr-12 04:59N 26°33' W 077°03'0 0.0
2018-Apr-12 04:29N 26°33' W 077°03'0 0.0
2018-Apr-12 03:59N 26°33' W 077°03'0 0.0
2018-Apr-12 03:29N 26°33' W 077°03'0 0.0
2018-Apr-12 02:59N 26°33' W 077°03'0 0.0
2018-Apr-12 02:29N 26°33' W 077°03'0 0.0
2018-Apr-12 01:59N 26°33' W 077°03'0 0.0
2018-Apr-12 01:29N 26°33' W 077°03'0 0.0
2018-Apr-12 00:59N 26°33' W 077°03'0 0.0
2018-Apr-12 00:29N 26°33' W 077°03'0 0.0
2018-Apr-11 23:59N 26°33' W 077°03'0 0.0
2018-Apr-11 23:29N 26°33' W 077°03'0 0.0
2018-Apr-11 22:59N 26°33' W 077°03'0 0.0
2018-Apr-11 22:29N 26°33' W 077°03'0 0.0
2018-Apr-11 21:59N 26°33' W 077°03'  

Dump ship's entire track history